Time;durP1;ratioP1;P1;durP2;ratioP2;P2;SDS_P1;SDS_P2;PMS_P1;PMS_P2;Temp;Humidity;BMP_temperature;BMP_pressure;BME280_temperature;BME280_humidity;BME280_pressure;Samples;Min_cycle;Max_cycle;Signal;HPM_P1;HPM_P2
2020/12/23 00:01:17;;;;;;;2.40;2.30;;;12.60;99.90;;;;;;5017875;28;20708;-77
2020/12/23 00:03:44;;;;;;;3.00;2.80;;;12.60;99.90;;;;;;5005458;28;20213;-78
2020/12/23 00:06:10;;;;;;;2.90;2.70;;;12.60;99.90;;;;;;5014180;28;20232;-78
2020/12/23 00:08:36;;;;;;;3.00;2.80;;;12.60;99.90;;;;;;5012883;28;20276;-78
2020/12/23 00:11:03;;;;;;;2.97;2.67;;;12.60;99.90;;;;;;5014170;28;20288;-78
2020/12/23 00:13:30;;;;;;;3.10;2.90;;;12.60;99.90;;;;;;5010453;28;20217;-78
2020/12/23 00:15:56;;;;;;;2.70;2.50;;;12.60;99.90;;;;;;5015218;28;20194;-78
2020/12/23 00:18:23;;;;;;;3.07;2.80;;;12.60;99.90;;;;;;5017654;28;20259;-78
2020/12/23 00:20:49;;;;;;;2.70;2.60;;;12.60;99.90;;;;;;5016190;28;20251;-78
2020/12/23 00:23:15;;;;;;;2.87;2.67;;;12.60;99.90;;;;;;5011151;28;20227;-78
2020/12/23 00:25:42;;;;;;;2.80;2.70;;;12.60;99.90;;;;;;5010299;28;20227;-77
2020/12/23 00:28:08;;;;;;;2.97;2.87;;;12.60;99.90;;;;;;5019136;28;20255;-78
2020/12/23 00:30:35;;;;;;;2.90;2.80;;;12.60;99.90;;;;;;5017553;28;20224;-78
2020/12/23 00:33:02;;;;;;;3.40;3.20;;;12.70;99.90;;;;;;5018666;28;20221;-78
2020/12/23 00:35:28;;;;;;;3.30;3.10;;;12.70;99.90;;;;;;5011234;28;20196;-78
2020/12/23 00:37:55;;;;;;;2.77;2.57;;;12.70;99.90;;;;;;5014319;28;20222;-78
2020/12/23 00:40:21;;;;;;;2.60;2.40;;;12.70;99.90;;;;;;5010340;28;20233;-78
2020/12/23 00:42:47;;;;;;;2.70;2.60;;;12.70;99.90;;;;;;5011822;28;20657;-78
2020/12/23 00:45:13;;;;;;;2.80;2.70;;;12.70;99.90;;;;;;5011150;28;20705;-77
2020/12/23 00:47:41;;;;;;;2.80;2.70;;;12.70;99.90;;;;;;5012308;28;20214;-77
2020/12/23 00:50:07;;;;;;;3.13;2.93;;;12.70;99.90;;;;;;5014202;28;20197;-77
2020/12/23 00:52:33;;;;;;;2.60;2.40;;;12.60;99.90;;;;;;5016881;28;20198;-77
2020/12/23 00:54:59;;;;;;;2.80;2.60;;;12.60;99.90;;;;;;5018104;28;20212;-77
2020/12/23 00:57:31;;;;;;;2.33;2.23;;;12.60;99.90;;;;;;5010074;28;20221;-77
2020/12/23 00:59:57;;;;;;;2.50;2.40;;;12.60;99.90;;;;;;5022070;28;20261;-78
2020/12/23 01:02:24;;;;;;;2.77;2.63;;;12.60;99.90;;;;;;5009004;28;20226;-78
2020/12/23 01:04:51;;;;;;;3.30;3.10;;;12.60;99.90;;;;;;5010530;28;20308;-78
2020/12/23 01:07:17;;;;;;;3.40;3.20;;;12.70;99.90;;;;;;5008974;28;20281;-79
2020/12/23 01:09:43;;;;;;;3.30;3.10;;;12.70;99.90;;;;;;5011500;28;20225;-77
2020/12/23 01:12:09;;;;;;;2.90;2.80;;;12.70;99.90;;;;;;5013546;28;20280;-78
2020/12/23 01:14:36;;;;;;;3.13;3.03;;;12.70;99.90;;;;;;5016895;28;20235;-78
2020/12/23 01:17:02;;;;;;;3.20;3.00;;;12.80;99.90;;;;;;5017771;28;20194;-77
2020/12/23 01:19:28;;;;;;;2.53;2.43;;;12.80;99.90;;;;;;5009082;28;20228;-78
2020/12/23 01:21:55;;;;;;;2.77;2.57;;;12.80;99.90;;;;;;5009900;28;20221;-78
2020/12/23 01:24:21;;;;;;;3.00;2.90;;;12.80;99.90;;;;;;5009897;28;20224;-78
2020/12/23 01:26:48;;;;;;;2.70;2.60;;;12.80;99.90;;;;;;5012589;28;20225;-78
2020/12/23 01:29:14;;;;;;;2.63;2.53;;;12.80;99.90;;;;;;5014856;28;20273;-78
2020/12/23 01:31:41;;;;;;;2.70;2.60;;;12.80;99.90;;;;;;5005076;28;20222;-78
2020/12/23 01:34:07;;;;;;;3.53;3.33;;;12.80;99.90;;;;;;5010490;28;20203;-78
2020/12/23 01:36:34;;;;;;;2.83;2.73;;;12.80;99.90;;;;;;5008036;28;20229;-78
2020/12/23 01:39:01;;;;;;;2.97;2.80;;;12.80;99.90;;;;;;5010586;28;20246;-78
2020/12/23 01:41:27;;;;;;;2.90;2.80;;;12.80;99.90;;;;;;5005473;28;20289;-77
2020/12/23 01:43:54;;;;;;;3.07;2.90;;;12.80;99.90;;;;;;5012963;28;20285;-78
2020/12/23 01:46:30;;;;;;;2.50;2.40;;;12.80;99.90;;;;;;5009834;28;20220;-78
2020/12/23 01:48:56;;;;;;;2.60;2.50;;;12.80;99.90;;;;;;5007473;28;20229;-77
2020/12/23 01:51:24;;;;;;;2.70;2.60;;;12.70;99.90;;;;;;5008312;28;20336;-78
2020/12/23 01:53:50;;;;;;;2.70;2.60;;;12.70;99.90;;;;;;5008621;28;20241;-77
2020/12/23 01:56:20;;;;;;;2.40;2.30;;;12.70;99.90;;;;;;5009769;28;20223;-78
2020/12/23 01:58:47;;;;;;;2.40;2.30;;;12.70;99.90;;;;;;5006001;28;20241;-77
2020/12/23 02:01:18;;;;;;;2.30;2.20;;;12.70;99.90;;;;;;5012826;28;20284;-77
2020/12/23 02:03:44;;;;;;;2.40;2.20;;;12.60;99.90;;;;;;5011521;28;20234;-77
2020/12/23 02:06:11;;;;;;;3.00;2.60;;;12.60;99.90;;;;;;5007849;28;20222;-78
2020/12/23 02:08:37;;;;;;;2.67;2.47;;;12.60;99.90;;;;;;5012785;28;20238;-77
2020/12/23 02:11:03;;;;;;;2.50;2.40;;;12.60;99.90;;;;;;5008164;28;20229;-78
2020/12/23 02:13:37;;;;;;;2.30;2.20;;;12.60;99.90;;;;;;5008870;28;20215;-79
2020/12/23 02:16:04;;;;;;;2.30;2.20;;;12.60;99.90;;;;;;5008030;28;20272;-78
2020/12/23 02:18:30;;;;;;;2.30;2.20;;;12.60;99.90;;;;;;5013609;28;20245;-78
2020/12/23 02:20:57;;;;;;;2.23;2.13;;;12.50;99.90;;;;;;5012486;28;20716;-78
2020/12/23 02:23:24;;;;;;;2.40;2.30;;;12.50;99.90;;;;;;5007394;28;20761;-78
2020/12/23 02:25:50;;;;;;;2.53;2.43;;;12.50;99.90;;;;;;5008154;28;20257;-78
2020/12/23 02:28:16;;;;;;;2.53;2.43;;;12.50;99.90;;;;;;5009346;28;20241;-78
2020/12/23 02:30:42;;;;;;;2.27;2.17;;;12.50;99.90;;;;;;5016184;28;20232;-78
2020/12/23 02:33:09;;;;;;;2.30;2.20;;;12.40;99.90;;;;;;5016963;28;20670;-78
2020/12/23 02:35:35;;;;;;;2.30;2.20;;;12.40;99.90;;;;;;5016014;28;20240;-78
2020/12/23 02:38:01;;;;;;;2.20;2.10;;;12.40;99.90;;;;;;5011750;28;20222;-78
2020/12/23 02:40:28;;;;;;;2.33;2.23;;;12.40;99.90;;;;;;5017088;28;20630;-77
2020/12/23 02:42:55;;;;;;;2.40;2.30;;;12.40;99.90;;;;;;5008794;28;20635;-77
2020/12/23 02:45:21;;;;;;;3.00;2.90;;;12.40;99.90;;;;;;5014142;28;20627;-78
2020/12/23 02:47:47;;;;;;;3.13;2.93;;;12.40;99.90;;;;;;5011491;28;20250;-78
2020/12/23 02:50:13;;;;;;;3.53;3.33;;;12.40;99.90;;;;;;5008992;28;20203;-77
2020/12/23 02:52:40;;;;;;;2.40;2.30;;;12.40;99.90;;;;;;5008644;28;20261;-78
2020/12/23 02:55:06;;;;;;;3.47;3.27;;;12.40;99.90;;;;;;5012473;28;20291;-77
2020/12/23 02:57:33;;;;;;;4.10;3.90;;;12.40;99.90;;;;;;5007477;28;20234;-78
2020/12/23 02:59:59;;;;;;;5.27;5.07;;;12.40;99.90;;;;;;5007884;28;20303;-78
2020/12/23 03:02:25;;;;;;;9.83;9.33;;;12.40;99.90;;;;;;5013572;28;20245;-77
2020/12/23 03:04:52;;;;;;;7.37;6.97;;;12.40;99.90;;;;;;5012176;28;20260;-77
2020/12/23 03:07:18;;;;;;;9.60;9.10;;;12.40;99.90;;;;;;5008624;28;20198;-77
2020/12/23 03:09:44;;;;;;;5.83;5.47;;;12.40;99.90;;;;;;5015067;28;20226;-78
2020/12/23 03:12:10;;;;;;;8.27;7.80;;;12.40;99.90;;;;;;5016096;28;20265;-78
2020/12/23 03:14:37;;;;;;;7.43;7.03;;;12.40;99.90;;;;;;5005550;28;20218;-77
2020/12/23 03:17:04;;;;;;;3.57;3.37;;;12.40;99.90;;;;;;5011334;28;20284;-78
2020/12/23 03:19:30;;;;;;;3.73;3.53;;;12.40;99.90;;;;;;5011139;28;20237;-78
2020/12/23 03:21:56;;;;;;;4.57;4.37;;;12.40;99.90;;;;;;5012062;28;20226;-78
2020/12/23 03:24:23;;;;;;;6.77;6.37;;;12.40;99.90;;;;;;5007210;28;20936;-78
2020/12/23 03:26:49;;;;;;;3.20;3.10;;;12.40;99.90;;;;;;5008266;28;20207;-77
2020/12/23 03:29:15;;;;;;;9.57;9.07;;;12.40;99.90;;;;;;5008189;28;20234;-78
2020/12/23 03:31:42;;;;;;;8.00;7.60;;;12.40;99.90;;;;;;5011055;28;20241;-78
2020/12/23 03:34:08;;;;;;;8.10;7.70;;;12.40;99.90;;;;;;5004459;28;20232;-78
2020/12/23 03:36:35;;;;;;;8.87;8.37;;;12.40;99.90;;;;;;5007965;28;20239;-78
2020/12/23 03:39:01;;;;;;;9.20;8.70;;;12.40;99.90;;;;;;5007019;28;20250;-77
2020/12/23 03:41:27;;;;;;;9.90;9.40;;;12.40;99.90;;;;;;5010690;28;20233;-78
2020/12/23 03:43:53;;;;;;;9.90;9.40;;;12.40;99.90;;;;;;5004185;28;20237;-78
2020/12/23 03:46:20;;;;;;;9.57;9.07;;;12.40;99.90;;;;;;5011251;28;20199;-80
2020/12/23 03:48:47;;;;;;;10.10;9.60;;;12.40;99.90;;;;;;5003533;28;20253;-78
2020/12/23 03:51:15;;;;;;;8.37;7.97;;;12.40;99.90;;;;;;5012537;28;20301;-79
2020/12/23 03:53:43;;;;;;;10.20;9.70;;;12.40;99.90;;;;;;5013634;28;20204;-79
2020/12/23 03:56:09;;;;;;;10.60;10.00;;;12.40;99.90;;;;;;5011072;28;20222;-79
2020/12/23 03:58:35;;;;;;;9.80;9.30;;;12.40;99.90;;;;;;5007293;28;20703;-79
2020/12/23 04:01:02;;;;;;;10.00;9.50;;;12.30;99.90;;;;;;5000524;28;20313;-79
2020/12/23 04:03:28;;;;;;;9.87;9.37;;;12.30;99.90;;;;;;5011693;28;20576;-79
2020/12/23 04:05:55;;;;;;;9.90;9.40;;;12.30;99.90;;;;;;5014286;28;20691;-80
2020/12/23 04:08:21;;;;;;;9.73;9.23;;;12.30;99.90;;;;;;5014947;28;20242;-78
2020/12/23 04:10:48;;;;;;;10.10;9.50;;;12.30;99.90;;;;;;5016356;28;20237;-78
2020/12/23 04:13:14;;;;;;;10.20;9.70;;;12.30;99.90;;;;;;5012251;28;20723;-78
2020/12/23 04:15:40;;;;;;;10.10;9.60;;;12.30;99.90;;;;;;5013014;28;20693;-77
2020/12/23 04:18:06;;;;;;;10.00;9.50;;;12.30;99.90;;;;;;5003606;28;20245;-78
2020/12/23 04:20:33;;;;;;;9.97;9.47;;;12.30;99.90;;;;;;5010440;28;20303;-78
2020/12/23 04:23:00;;;;;;;10.27;9.67;;;12.30;99.90;;;;;;5011046;28;20228;-78
2020/12/23 04:25:27;;;;;;;9.97;9.47;;;12.30;99.90;;;;;;5012546;28;20738;-78
2020/12/23 04:27:53;;;;;;;10.03;9.53;;;12.40;99.90;;;;;;5009419;28;20271;-78
2020/12/23 04:30:19;;;;;;;10.50;9.90;;;12.40;99.90;;;;;;5011635;28;20658;-78
2020/12/23 04:32:45;;;;;;;10.40;9.90;;;12.40;99.90;;;;;;5008240;28;20649;-78
2020/12/23 04:35:11;;;;;;;10.50;9.90;;;12.40;99.90;;;;;;5008573;28;20625;-78
2020/12/23 04:37:38;;;;;;;10.30;9.80;;;12.40;99.90;;;;;;5011192;28;20252;-79
2020/12/23 04:40:06;;;;;;;10.30;9.70;;;12.40;99.90;;;;;;5015879;28;20244;-78
2020/12/23 04:42:33;;;;;;;10.30;9.80;;;12.30;99.90;;;;;;5009427;28;20764;-78
2020/12/23 04:44:59;;;;;;;10.10;9.60;;;12.30;99.90;;;;;;5012720;28;20206;-79
2020/12/23 04:47:26;;;;;;;9.80;9.30;;;12.30;99.90;;;;;;5014555;28;20316;-79
2020/12/23 04:49:56;;;;;;;10.10;9.60;;;12.30;99.90;;;;;;5014097;28;20713;-79
2020/12/23 04:52:30;;;;;;;10.53;9.93;;;12.30;99.90;;;;;;5014022;28;20713;-79
2020/12/23 04:54:58;;;;;;;10.30;9.80;;;12.30;99.90;;;;;;5009745;28;20205;-79
2020/12/23 04:57:27;;;;;;;10.70;10.10;;;12.30;99.90;;;;;;5011895;28;20248;-78
2020/12/23 04:59:53;;;;;;;10.37;9.87;;;12.30;99.90;;;;;;5009820;28;20628;-79
2020/12/23 05:02:19;;;;;;;11.00;10.40;;;12.30;99.90;;;;;;5010712;28;20274;-78
2020/12/23 05:04:46;;;;;;;10.50;9.90;;;12.20;99.90;;;;;;5015121;28;20703;-78
2020/12/23 05:07:12;;;;;;;10.87;10.27;;;12.20;99.90;;;;;;5009943;28;20761;-78
2020/12/23 05:09:39;;;;;;;10.43;9.93;;;12.20;99.90;;;;;;5013332;28;20285;-77
2020/12/23 05:12:05;;;;;;;11.00;10.40;;;12.30;99.90;;;;;;5015922;28;20244;-79
2020/12/23 05:14:34;;;;;;;10.73;10.13;;;12.30;99.90;;;;;;5014398;28;20229;-79
2020/12/23 05:17:02;;;;;;;11.10;10.50;;;12.20;99.90;;;;;;5015111;28;20221;-77
2020/12/23 05:19:29;;;;;;;11.17;10.57;;;12.30;99.90;;;;;;5007024;28;20249;-81
2020/12/23 05:21:58;;;;;;;11.30;10.70;;;12.20;99.90;;;;;;5015454;28;20641;-78
2020/12/23 05:24:26;;;;;;;11.20;10.50;;;12.30;99.90;;;;;;5009404;28;20225;-78
2020/12/23 05:26:58;;;;;;;10.90;10.30;;;12.30;99.90;;;;;;5015877;28;20200;-80
2020/12/23 05:29:24;;;;;;;9.37;8.87;;;12.30;99.90;;;;;;5009616;28;20228;-79
2020/12/23 05:31:51;;;;;;;3.57;3.37;;;12.30;99.90;;;;;;5015174;28;20225;-79
2020/12/23 05:34:19;;;;;;;3.27;3.10;;;12.30;99.90;;;;;;5015724;28;20687;-78
2020/12/23 05:36:45;;;;;;;3.10;3.00;;;12.30;99.90;;;;;;5013920;28;20197;-78
2020/12/23 05:39:12;;;;;;;3.60;3.40;;;12.20;99.90;;;;;;5014041;28;20241;-78
2020/12/23 05:41:39;;;;;;;3.40;3.20;;;12.30;99.90;;;;;;5006423;28;20235;-79
2020/12/23 05:44:15;;;;;;;3.53;3.33;;;12.30;99.90;;;;;;5014924;28;20198;-79
2020/12/23 05:46:41;;;;;;;3.47;3.27;;;12.30;99.90;;;;;;5010371;28;20205;-79
2020/12/23 05:49:11;;;;;;;3.20;3.10;;;12.30;99.90;;;;;;5012314;28;20605;-79
2020/12/23 05:51:38;;;;;;;3.80;3.60;;;12.30;99.90;;;;;;5011477;28;20206;-78
2020/12/23 05:54:05;;;;;;;3.80;3.60;;;12.30;99.90;;;;;;5012406;28;20216;-78
2020/12/23 05:56:36;;;;;;;4.10;3.90;;;12.20;99.90;;;;;;5011289;28;20218;-79
2020/12/23 05:59:03;;;;;;;4.17;3.97;;;12.30;99.90;;;;;;5012282;28;20237;-77
2020/12/23 06:01:34;;;;;;;4.90;4.57;;;12.30;99.90;;;;;;5008000;28;20244;-78
2020/12/23 06:04:04;;;;;;;5.03;4.73;;;12.30;99.90;;;;;;5009433;28;20236;-79
2020/12/23 06:06:32;;;;;;;4.40;4.20;;;12.30;99.90;;;;;;5005708;28;20556;-78
2020/12/23 06:09:01;;;;;;;4.50;4.30;;;12.30;99.90;;;;;;5015502;28;20240;-78
2020/12/23 06:11:35;;;;;;;4.40;4.20;;;12.30;99.90;;;;;;5002107;28;20708;-78
2020/12/23 06:14:19;;;;;;;4.43;4.23;;;12.30;99.90;;;;;;5006094;28;20220;-77
2020/12/23 06:16:48;;;;;;;5.00;4.70;;;12.30;99.90;;;;;;5012040;28;20227;-78
2020/12/23 06:19:25;;;;;;;5.20;4.90;;;12.30;99.90;;;;;;5011420;28;20217;-78
2020/12/23 06:21:53;;;;;;;4.63;4.37;;;12.30;99.90;;;;;;5011096;28;20246;-78
2020/12/23 06:24:20;;;;;;;4.90;4.60;;;12.20;99.90;;;;;;5012379;28;20225;-78
2020/12/23 06:26:48;;;;;;;4.33;4.03;;;12.30;99.90;;;;;;5008454;28;20638;-78
2020/12/23 06:29:16;;;;;;;4.80;4.50;;;12.30;99.90;;;;;;5012630;28;20251;-78
2020/12/23 06:31:44;;;;;;;4.30;4.10;;;12.20;99.90;;;;;;5010534;28;20197;-79
2020/12/23 06:34:14;;;;;;;4.57;4.30;;;12.20;99.90;;;;;;5012026;28;20661;-78
2020/12/23 06:36:41;;;;;;;4.43;4.13;;;12.20;99.90;;;;;;5009539;28;20342;-79
2020/12/23 06:39:39;;;;;;;11.17;10.57;;;12.10;99.90;;;;;;5011124;28;20236;-79
2020/12/23 06:42:36;;;;;;;5.90;5.53;;;12.10;99.90;;;;;;5008858;28;20625;-78
2020/12/23 06:45:06;;;;;;;9.37;8.87;;;12.00;99.90;;;;;;5014302;28;20211;-80
2020/12/23 06:47:33;;;;;;;8.60;8.10;;;12.00;99.90;;;;;;5017057;28;20216;-79
2020/12/23 06:50:01;;;;;;;8.73;8.27;;;12.00;99.90;;;;;;5010827;28;20203;-78
2020/12/23 06:52:49;;;;;;;8.50;8.00;;;12.00;99.90;;;;;;5013631;28;20197;-80
2020/12/23 06:55:17;;;;;;;4.90;4.60;;;12.00;99.90;;;;;;5009771;28;20199;-78
2020/12/23 06:57:57;;;;;;;5.93;5.63;;;12.00;99.90;;;;;;5016325;28;20252;-79
2020/12/23 07:00:50;;;;;;;5.43;5.03;;;12.00;99.90;;;;;;5004440;28;20216;-80
2020/12/23 07:03:19;;;;;;;7.47;7.07;;;12.10;99.90;;;;;;5012057;28;20278;-79
2020/12/23 07:05:47;;;;;;;6.93;6.53;;;12.00;99.90;;;;;;5011324;28;20243;-80
2020/12/23 07:08:16;;;;;;;6.53;6.13;;;12.10;99.90;;;;;;5014485;28;20231;-79
2020/12/23 07:10:46;;;;;;;5.27;4.90;;;12.00;99.90;;;;;;5013616;28;20272;-79
2020/12/23 07:13:14;;;;;;;6.87;6.37;;;11.90;99.90;;;;;;5013760;28;20196;-79
2020/12/23 07:15:42;;;;;;;5.33;4.93;;;12.00;99.90;;;;;;5009050;28;20269;-79
2020/12/23 07:18:10;;;;;;;7.00;6.50;;;11.90;99.90;;;;;;5013186;28;20264;-79
2020/12/23 07:20:41;;;;;;;7.00;6.60;;;11.90;99.90;;;;;;5014453;28;20742;-79
2020/12/23 07:23:10;;;;;;;12.23;11.53;;;11.90;99.90;;;;;;5011102;28;20192;-79
2020/12/23 07:25:48;;;;;;;12.67;11.90;;;11.90;99.90;;;;;;5004125;28;20305;-79
2020/12/23 07:28:17;;;;;;;12.07;11.37;;;11.90;99.90;;;;;;5014074;28;20220;-81
2020/12/23 07:30:44;;;;;;;15.37;14.47;;;12.00;99.90;;;;;;5013640;28;20200;-79
2020/12/23 07:33:16;;;;;;;11.23;10.63;;;12.00;99.90;;;;;;4999711;28;20196;-79
2020/12/23 07:35:47;;;;;;;6.27;5.87;;;12.00;99.90;;;;;;5005916;28;20224;-79
2020/12/23 07:38:15;;;;;;;12.90;12.20;;;12.00;99.90;;;;;;5005825;28;20591;-79
2020/12/23 07:40:42;;;;;;;8.03;7.53;;;12.00;99.90;;;;;;5005924;28;20366;-80
2020/12/23 07:43:12;;;;;;;6.10;5.70;;;12.00;99.90;;;;;;4999855;28;20205;-80
2020/12/23 07:45:38;;;;;;;6.27;5.97;;;12.00;99.90;;;;;;4999656;28;20202;-79
2020/12/23 07:48:07;;;;;;;8.37;7.87;;;12.00;99.90;;;;;;5024926;28;20315;-79
2020/12/23 07:50:35;;;;;;;7.33;6.93;;;12.00;99.90;;;;;;5008752;28;20679;-78
2020/12/23 07:53:12;;;;;;;5.50;5.20;;;12.00;99.90;;;;;;5009236;28;20608;-80
2020/12/23 07:55:40;;;;;;;9.20;8.70;;;12.00;99.90;;;;;;5006937;28;20287;-77
2020/12/23 07:58:06;;;;;;;4.97;4.67;;;12.00;99.90;;;;;;5009717;28;20244;-80
2020/12/23 08:00:33;;;;;;;6.80;6.40;;;12.00;99.90;;;;;;5010343;28;20237;-78
2020/12/23 08:03:00;;;;;;;10.60;10.00;;;12.10;99.90;;;;;;5010133;28;20193;-78
2020/12/23 08:05:26;;;;;;;11.80;11.20;;;12.10;99.90;;;;;;5009916;28;20556;-78
2020/12/23 08:07:52;;;;;;;8.47;7.97;;;12.10;99.90;;;;;;5010218;28;20271;-78
2020/12/23 08:10:20;;;;;;;5.70;5.40;;;12.20;99.90;;;;;;5012327;28;20217;-78
2020/12/23 08:12:54;;;;;;;7.33;6.93;;;12.20;99.90;;;;;;5015093;28;20201;-78
2020/12/23 08:15:21;;;;;;;9.50;9.00;;;12.20;99.90;;;;;;5003815;28;20250;-78
2020/12/23 08:17:48;;;;;;;5.70;5.40;;;12.30;99.90;;;;;;5016648;28;20698;-78
2020/12/23 08:20:16;;;;;;;10.70;10.10;;;12.30;99.90;;;;;;5016036;28;20213;-80
2020/12/23 08:22:43;;;;;;;7.50;7.10;;;12.30;99.90;;;;;;5016239;28;20228;-77
2020/12/23 08:25:14;;;;;;;5.57;5.27;;;12.40;99.90;;;;;;5010933;28;20221;-78
2020/12/23 08:27:43;;;;;;;10.60;10.00;;;12.40;99.90;;;;;;5015032;28;20254;-78
2020/12/23 08:30:11;;;;;;;10.77;10.17;;;12.40;99.90;;;;;;5013893;28;20296;-78
2020/12/23 08:32:43;;;;;;;7.47;7.07;;;12.40;99.90;;;;;;5012732;28;20248;-78
2020/12/23 08:35:11;;;;;;;6.40;6.00;;;12.40;99.90;;;;;;5016130;28;20203;-78
2020/12/23 08:37:37;;;;;;;7.13;6.73;;;12.50;99.90;;;;;;5011565;28;20272;-78
2020/12/23 08:40:06;;;;;;;5.73;5.33;;;12.50;99.90;;;;;;5015554;28;20722;-78
2020/12/23 08:42:33;;;;;;;9.40;8.90;;;12.40;99.90;;;;;;5010531;28;20282;-80
2020/12/23 08:44:59;;;;;;;7.30;6.90;;;12.50;99.90;;;;;;5016485;28;20693;-79
2020/12/23 08:47:35;;;;;;;4.63;4.33;;;12.50;99.90;;;;;;5012115;28;20863;-79
2020/12/23 08:50:02;;;;;;;11.13;10.53;;;12.50;99.90;;;;;;5012245;28;20222;-78
2020/12/23 08:52:29;;;;;;;12.87;12.17;;;12.50;99.90;;;;;;5006252;28;20285;-77
2020/12/23 08:54:55;;;;;;;8.10;7.60;;;12.50;99.90;;;;;;5006978;28;20220;-77
2020/12/23 08:57:24;;;;;;;11.53;10.93;;;12.50;99.90;;;;;;5012762;28;20232;-77
2020/12/23 08:59:51;;;;;;;11.30;10.70;;;12.60;99.90;;;;;;5009213;28;20308;-77
2020/12/23 09:02:17;;;;;;;11.40;10.70;;;12.70;99.90;;;;;;5009093;28;20254;-77
2020/12/23 09:04:44;;;;;;;11.10;10.50;;;12.70;99.90;;;;;;5009659;28;20726;-77
2020/12/23 09:07:11;;;;;;;11.47;10.87;;;12.80;99.90;;;;;;5006086;28;20685;-77
2020/12/23 09:09:38;;;;;;;11.30;10.70;;;12.90;99.90;;;;;;5009484;28;20186;-77
2020/12/23 09:12:05;;;;;;;11.70;11.10;;;13.00;99.90;;;;;;5006814;28;20226;-77
2020/12/23 09:14:34;;;;;;;11.20;10.60;;;13.10;99.90;;;;;;5008188;28;20234;-77
2020/12/23 09:17:06;;;;;;;11.13;10.53;;;13.20;99.90;;;;;;5008496;28;20211;-77
2020/12/23 09:19:52;;;;;;;11.90;11.30;;;13.30;99.90;;;;;;5011999;28;20673;-77
2020/12/23 09:22:35;;;;;;;12.03;11.43;;;13.40;99.90;;;;;;5014997;28;20205;-78
2020/12/23 09:25:26;;;;;;;11.70;11.10;;;13.50;99.90;;;;;;5012389;28;20209;-78
2020/12/23 09:27:54;;;;;;;11.53;10.93;;;13.60;99.90;;;;;;4990287;28;20263;-79
2020/12/23 09:30:31;;;;;;;12.00;11.40;;;13.60;99.90;;;;;;5027149;28;20201;-77
2020/12/23 09:32:58;;;;;;;12.00;11.40;;;13.70;99.90;;;;;;5015638;28;20209;-77
2020/12/23 09:35:26;;;;;;;12.10;11.50;;;13.70;99.90;;;;;;5016142;28;20749;-79
2020/12/23 09:38:03;;;;;;;11.07;10.47;;;13.80;99.90;;;;;;5009281;28;20223;-80
2020/12/23 09:40:31;;;;;;;11.43;10.83;;;13.80;99.90;;;;;;5011530;28;20651;-79
2020/12/23 09:42:57;;;;;;;12.03;11.43;;;13.80;99.90;;;;;;5014083;28;20224;-79
2020/12/23 09:45:23;;;;;;;12.40;11.80;;;13.80;99.90;;;;;;5012993;28;20210;-79
2020/12/23 09:47:50;;;;;;;12.13;11.53;;;13.80;99.90;;;;;;5013136;28;20218;-79
2020/12/23 09:50:16;;;;;;;12.70;12.00;;;13.80;99.90;;;;;;5008121;28;20255;-79
2020/12/23 09:52:42;;;;;;;12.00;11.40;;;13.80;99.90;;;;;;5015009;28;20549;-80
2020/12/23 09:55:08;;;;;;;11.70;11.10;;;13.90;99.90;;;;;;5015046;28;20220;-80
2020/12/23 09:57:36;;;;;;;11.70;11.10;;;13.90;99.90;;;;;;5014128;28;20253;-80
2020/12/23 10:00:03;;;;;;;11.80;11.20;;;13.90;99.90;;;;;;5016499;28;20212;-79
2020/12/23 10:02:38;;;;;;;10.20;9.63;;;13.90;99.90;;;;;;5012199;28;20220;-79
2020/12/23 10:05:05;;;;;;;6.47;6.07;;;14.00;99.90;;;;;;5013968;28;20232;-79
2020/12/23 10:07:31;;;;;;;5.00;4.70;;;14.00;99.90;;;;;;5001323;28;20223;-79
2020/12/23 10:09:58;;;;;;;9.80;9.30;;;14.10;99.90;;;;;;5013183;28;20698;-79
2020/12/23 10:12:25;;;;;;;6.73;6.33;;;14.20;99.90;;;;;;5008871;28;20299;-78
2020/12/23 10:14:52;;;;;;;8.23;7.73;;;14.40;99.90;;;;;;5014142;28;20579;-79
2020/12/23 10:17:18;;;;;;;9.50;9.00;;;14.50;99.90;;;;;;5012756;28;20699;-80
2020/12/23 10:19:44;;;;;;;9.67;9.17;;;14.60;99.90;;;;;;5011753;28;20208;-79
2020/12/23 10:22:11;;;;;;;6.13;5.83;;;14.70;99.90;;;;;;5014718;28;20640;-80
2020/12/23 10:24:37;;;;;;;5.00;4.70;;;14.80;99.90;;;;;;5011983;28;20568;-79
2020/12/23 10:27:04;;;;;;;9.20;8.70;;;14.90;99.90;;;;;;5014085;28;20223;-79
2020/12/23 10:29:30;;;;;;;9.03;8.53;;;15.00;99.90;;;;;;5007385;28;20208;-78
2020/12/23 10:32:01;;;;;;;2.30;2.20;;;15.00;99.90;;;;;;5013271;28;20247;-78
2020/12/23 10:34:30;;;;;;;2.80;2.63;;;15.00;99.90;;;;;;4998079;28;20193;-79
2020/12/23 10:36:57;;;;;;;4.40;4.10;;;15.10;99.90;;;;;;5012089;28;20199;-79
2020/12/23 10:39:28;;;;;;;12.90;12.17;;;15.00;99.90;;;;;;5012358;28;20245;-80
2020/12/23 10:42:00;;;;;;;4.60;4.30;;;15.10;99.90;;;;;;5015327;28;20253;-81
2020/12/23 10:44:27;;;;;;;5.97;5.57;;;15.20;99.90;;;;;;5017606;28;20200;-81
2020/12/23 10:46:56;;;;;;;6.47;6.07;;;15.20;99.90;;;;;;5018425;28;20197;-80
2020/12/23 10:49:31;;;;;;;5.50;5.20;;;15.20;99.90;;;;;;5013984;28;20221;-80
2020/12/23 10:51:59;;;;;;;6.00;5.70;;;15.30;99.90;;;;;;5012672;28;20208;-80
2020/12/23 10:54:26;;;;;;;8.00;7.50;;;15.30;99.90;;;;;;5012976;28;20198;-81
2020/12/23 10:56:53;;;;;;;9.90;9.40;;;15.30;99.90;;;;;;5018843;28;20229;-78
2020/12/23 10:59:19;;;;;;;8.17;7.67;;;15.40;99.90;;;;;;5015123;28;20276;-81
2020/12/23 11:01:46;;;;;;;9.00;8.50;;;15.40;99.90;;;;;;5006811;28;20301;-81
2020/12/23 11:04:12;;;;;;;10.60;10.00;;;15.50;99.90;;;;;;5013848;28;20224;-80
2020/12/23 11:06:39;;;;;;;4.20;4.00;;;15.50;99.90;;;;;;5013207;28;20201;-81
2020/12/23 11:09:06;;;;;;;2.73;2.53;;;15.60;99.90;;;;;;5022872;28;20215;-80
2020/12/23 11:11:32;;;;;;;3.90;3.70;;;15.70;99.90;;;;;;5020582;28;20198;-80
2020/12/23 11:13:58;;;;;;;6.87;6.47;;;15.80;99.90;;;;;;5023897;28;20196;-80
2020/12/23 11:16:27;;;;;;;4.93;4.63;;;15.80;99.90;;;;;;5013952;28;20228;-80
2020/12/23 11:18:53;;;;;;;5.63;5.33;;;15.90;99.90;;;;;;5011915;28;20226;-80
2020/12/23 11:21:19;;;;;;;9.53;9.00;;;15.90;99.90;;;;;;5012506;28;20257;-80
2020/12/23 11:23:47;;;;;;;5.97;5.67;;;16.00;99.90;;;;;;5002648;28;20212;-81
2020/12/23 11:26:17;;;;;;;3.87;3.67;;;16.00;99.90;;;;;;5012238;28;20684;-80
2020/12/23 11:28:43;;;;;;;3.40;3.20;;;16.00;99.90;;;;;;5008927;28;20755;-80
2020/12/23 11:31:10;;;;;;;9.77;9.17;;;15.90;99.90;;;;;;5014119;28;20831;-80
2020/12/23 11:33:36;;;;;;;8.37;7.87;;;15.90;99.90;;;;;;5014257;28;20220;-80
2020/12/23 11:36:03;;;;;;;4.93;4.63;;;15.80;99.90;;;;;;5012280;28;20246;-80
2020/12/23 11:38:29;;;;;;;4.50;4.20;;;15.80;99.90;;;;;;5013760;28;20286;-80
2020/12/23 11:40:56;;;;;;;4.00;3.80;;;15.70;99.90;;;;;;5015692;28;20225;-80
2020/12/23 11:43:22;;;;;;;3.20;3.00;;;15.70;99.90;;;;;;5006244;28;20214;-80
2020/12/23 11:45:49;;;;;;;3.67;2.97;;;15.60;99.90;;;;;;5011861;28;20231;-80
2020/12/23 11:48:15;;;;;;;2.90;2.70;;;15.60;99.90;;;;;;5006517;28;20229;-79
2020/12/23 11:50:42;;;;;;;4.40;3.17;;;15.60;99.90;;;;;;5016962;28;20588;-79
2020/12/23 11:53:08;;;;;;;4.80;4.50;;;15.60;99.90;;;;;;5017948;28;20223;-80
2020/12/23 11:55:34;;;;;;;6.07;5.70;;;15.60;99.90;;;;;;5016465;28;20972;-80
2020/12/23 11:58:02;;;;;;;4.30;3.90;;;15.60;99.90;;;;;;5018143;28;20630;-80
2020/12/23 12:00:28;;;;;;;7.53;7.03;;;15.60;99.90;;;;;;5014297;28;20251;-80
2020/12/23 12:02:54;;;;;;;9.47;8.87;;;15.60;99.90;;;;;;5013684;28;20217;-80
2020/12/23 12:05:20;;;;;;;8.40;7.90;;;15.70;99.90;;;;;;5013627;28;20231;-80
2020/12/23 12:07:47;;;;;;;11.07;10.37;;;15.70;99.90;;;;;;5003606;28;20247;-80
2020/12/23 12:10:13;;;;;;;10.93;10.33;;;15.70;99.90;;;;;;5000590;28;20671;-79
2020/12/23 12:12:39;;;;;;;11.40;10.70;;;15.70;99.90;;;;;;5003081;28;20682;-80
2020/12/23 12:15:07;;;;;;;11.00;10.40;;;15.60;99.90;;;;;;5016117;28;20221;-79
2020/12/23 12:17:33;;;;;;;11.00;10.40;;;15.60;99.90;;;;;;5014027;28;20224;-80
2020/12/23 12:19:59;;;;;;;11.33;10.63;;;15.60;99.90;;;;;;5017568;28;20611;-83
2020/12/23 12:22:58;;;;;;;11.40;10.70;;;15.60;99.90;;;;;;5009260;28;20207;-82
2020/12/23 12:25:43;;;;;;;10.20;9.60;;;15.60;99.90;;;;;;4971848;28;20202;-83
2020/12/23 12:28:44;;;;;;;4.60;4.30;;;15.60;99.90;;;;;;4948115;29;20717;-80
2020/12/23 12:34:00;;;;;;;5.10;4.77;;;15.80;99.90;;;;;;4989567;28;20207;-80
2020/12/23 12:36:27;;;;;;;11.30;10.70;;;15.80;99.90;;;;;;5014549;28;20191;-78
2020/12/23 12:38:53;;;;;;;8.07;7.57;;;15.90;99.90;;;;;;5013546;28;20249;-79
2020/12/23 12:41:24;;;;;;;11.87;11.17;;;16.00;99.90;;;;;;5013514;28;20263;-78
2020/12/23 12:43:51;;;;;;;9.87;9.30;;;16.00;99.90;;;;;;5012141;28;20297;-77
2020/12/23 12:46:18;;;;;;;8.77;8.17;;;16.00;99.90;;;;;;5013378;28;20239;-81
2020/12/23 12:48:45;;;;;;;11.87;11.17;;;16.00;99.90;;;;;;5010854;28;20224;-81
2020/12/23 12:51:11;;;;;;;6.33;5.93;;;16.00;99.90;;;;;;5014186;28;20234;-82